Time;durP1;ratioP1;P1;durP2;ratioP2;P2;SDS_P1;SDS_P2;PMS_P1;PMS_P2;Temp;Humidity;BMP_temperature;BMP_pressure;BME280_temperature;BME280_humidity;BME280_pressure;Samples;Min_cycle;Max_cycle;Signal;HPM_P1;HPM_P2
2023/06/27 00:01:25;;;;;;;2.83;0.95;;;19.40;99.90;;;;;;5049761;28;20036;-84
2023/06/27 00:03:52;;;;;;;2.17;1.10;;;19.40;99.90;;;;;;5050121;28;20037;-84
2023/06/27 00:06:19;;;;;;;4.45;1.13;;;19.40;99.90;;;;;;5050341;28;20037;-86
2023/06/27 00:08:49;;;;;;;3.35;0.80;;;19.40;99.90;;;;;;5052034;28;20496;-83
2023/06/27 00:11:16;;;;;;;4.78;1.08;;;19.40;99.90;;;;;;5048555;28;20393;-88
2023/06/27 00:13:42;;;;;;;4.55;0.95;;;19.40;99.90;;;;;;5054621;28;20037;-84
2023/06/27 00:16:15;;;;;;;3.92;1.17;;;19.30;99.90;;;;;;5045439;28;20052;-84
2023/06/27 00:18:47;;;;;;;1.98;0.90;;;19.40;99.90;;;;;;5048649;28;20036;-83
2023/06/27 00:21:18;;;;;;;4.47;1.30;;;19.40;99.90;;;;;;5048194;28;20037;-84
2023/06/27 00:23:44;;;;;;;4.00;1.00;;;19.40;99.90;;;;;;5052721;28;20029;-84
2023/06/27 00:26:12;;;;;;;3.45;1.20;;;19.30;99.90;;;;;;5047092;28;20052;-83
2023/06/27 00:28:38;;;;;;;3.20;1.15;;;19.30;99.90;;;;;;5051540;28;20032;-85
2023/06/27 00:31:05;;;;;;;4.95;1.20;;;19.20;99.90;;;;;;5051105;28;20037;-86
2023/06/27 00:33:32;;;;;;;3.35;0.98;;;19.20;99.90;;;;;;5051569;28;20048;-87
2023/06/27 00:35:58;;;;;;;3.10;1.02;;;19.10;99.90;;;;;;5045666;28;20213;-86
2023/06/27 00:38:24;;;;;;;4.82;1.00;;;19.00;99.90;;;;;;5065887;28;20387;-84
2023/06/27 00:40:50;;;;;;;3.63;1.50;;;19.00;99.90;;;;;;5050173;28;20052;-85
2023/06/27 00:43:16;;;;;;;2.53;1.25;;;18.90;99.90;;;;;;5036058;28;20151;-84
2023/06/27 00:45:43;;;;;;;2.70;0.88;;;18.80;99.90;;;;;;5046733;28;20034;-85
2023/06/27 00:48:13;;;;;;;3.00;0.80;;;18.80;99.90;;;;;;5049658;28;20029;-84
2023/06/27 00:50:39;;;;;;;4.85;1.00;;;18.70;99.90;;;;;;5051397;28;20036;-84
2023/06/27 00:53:06;;;;;;;4.47;1.25;;;18.60;99.90;;;;;;5050483;28;20061;-83
2023/06/27 00:55:32;;;;;;;4.57;0.95;;;18.60;99.90;;;;;;5050577;28;20033;-84
2023/06/27 00:57:59;;;;;;;3.05;1.17;;;18.60;99.90;;;;;;5020893;28;20045;-84
2023/06/27 01:00:26;;;;;;;6.90;1.98;;;18.60;99.90;;;;;;5043608;28;20041;-83
2023/06/27 01:02:52;;;;;;;2.75;1.17;;;18.50;99.90;;;;;;5013112;28;20049;-84
2023/06/27 01:05:19;;;;;;;4.30;1.08;;;18.50;99.90;;;;;;5044825;28;20045;-84
2023/06/27 01:08:11;;;;;;;3.78;1.02;;;18.60;99.90;;;;;;5024487;28;20037;-84
2023/06/27 01:10:48;;;;;;;2.65;0.82;;;18.50;99.90;;;;;;4981805;28;20041;-84
2023/06/27 01:13:17;;;;;;;6.90;1.30;;;18.60;99.90;;;;;;5029542;28;20357;-84
2023/06/27 01:15:44;;;;;;;3.85;1.10;;;18.60;99.90;;;;;;5026873;28;20052;-84
2023/06/27 01:18:12;;;;;;;3.10;1.00;;;18.60;99.90;;;;;;5031396;28;20044;-84
2023/06/27 01:20:39;;;;;;;4.53;1.25;;;18.60;99.90;;;;;;5012914;28;20050;-83
2023/06/27 01:23:17;;;;;;;4.18;1.17;;;18.60;99.90;;;;;;5028518;28;20040;-84
2023/06/27 01:25:44;;;;;;;2.78;0.70;;;18.60;99.90;;;;;;5027209;28;20128;-84
2023/06/27 01:28:14;;;;;;;3.67;1.10;;;18.60;99.90;;;;;;5030798;28;20041;-84
2023/06/27 01:30:41;;;;;;;3.78;1.20;;;18.50;99.90;;;;;;5005223;28;20053;-84
2023/06/27 01:33:19;;;;;;;2.88;1.08;;;18.30;99.90;;;;;;5031791;28;20036;-83
2023/06/27 01:36:08;;;;;;;4.30;1.00;;;18.20;99.90;;;;;;5031612;28;20384;-83
2023/06/27 01:38:50;;;;;;;3.50;1.27;;;18.10;99.90;;;;;;5030799;28;20034;-84
2023/06/27 01:41:18;;;;;;;4.32;0.90;;;18.00;99.90;;;;;;5017656;28;20037;-83
2023/06/27 01:43:45;;;;;;;2.88;1.40;;;17.80;99.90;;;;;;5035170;28;20041;-84
2023/06/27 01:46:14;;;;;;;6.50;2.10;;;17.70;99.90;;;;;;5044582;28;20057;-84
2023/06/27 01:48:41;;;;;;;3.25;0.80;;;17.60;99.90;;;;;;5023835;28;20033;-84
2023/06/27 01:51:08;;;;;;;3.45;1.00;;;17.50;99.90;;;;;;5011688;28;20056;-83
2023/06/27 01:53:36;;;;;;;3.58;0.80;;;17.40;99.90;;;;;;5018030;28;20038;-84
2023/06/27 01:56:03;;;;;;;3.75;1.90;;;17.30;99.90;;;;;;5027092;28;20030;-84
2023/06/27 01:58:30;;;;;;;5.07;1.15;;;17.30;99.90;;;;;;5015412;28;20056;-83
2023/06/27 02:00:56;;;;;;;3.35;0.90;;;17.30;99.90;;;;;;5015697;28;20042;-84
2023/06/27 02:03:22;;;;;;;5.60;1.33;;;17.20;99.90;;;;;;5032238;28;20045;-84
2023/06/27 02:05:48;;;;;;;2.47;1.10;;;17.10;99.90;;;;;;5028938;28;20049;-83
2023/06/27 02:08:15;;;;;;;4.75;1.27;;;17.20;99.90;;;;;;5026993;28;20037;-83
2023/06/27 02:10:41;;;;;;;3.47;1.30;;;17.10;99.90;;;;;;5004235;28;20048;-83
2023/06/27 02:13:12;;;;;;;3.67;1.38;;;17.20;99.90;;;;;;5044730;28;20041;-83
2023/06/27 02:15:39;;;;;;;5.10;0.93;;;17.10;99.90;;;;;;5025664;28;20037;-84
2023/06/27 02:18:05;;;;;;;3.90;1.10;;;17.10;99.90;;;;;;5010756;28;20040;-84
2023/06/27 02:20:31;;;;;;;3.28;1.30;;;17.10;99.90;;;;;;5027731;28;20040;-84
2023/06/27 02:22:59;;;;;;;4.40;1.55;;;17.00;99.90;;;;;;5028238;28;20050;-83
2023/06/27 02:25:27;;;;;;;2.35;1.35;;;16.90;99.90;;;;;;5042104;28;20357;-83
2023/06/27 02:27:53;;;;;;;3.78;0.93;;;16.90;99.90;;;;;;5008883;28;20494;-83
2023/06/27 02:30:19;;;;;;;3.53;0.90;;;16.90;99.90;;;;;;5029745;28;20029;-83
2023/06/27 02:32:45;;;;;;;3.67;1.30;;;16.90;99.90;;;;;;5028207;28;20041;-84
2023/06/27 02:35:15;;;;;;;7.85;1.42;;;16.70;99.90;;;;;;5043229;28;20042;-84
2023/06/27 02:37:42;;;;;;;1.92;1.08;;;16.70;99.90;;;;;;5042054;28;20029;-83
2023/06/27 02:40:09;;;;;;;6.20;1.92;;;16.50;99.90;;;;;;5029315;28;20064;-83
2023/06/27 02:42:35;;;;;;;4.90;1.40;;;16.40;99.90;;;;;;5025262;28;20041;-83
2023/06/27 02:45:01;;;;;;;2.85;1.00;;;16.40;99.90;;;;;;5026947;28;20452;-84
2023/06/27 02:47:27;;;;;;;3.75;1.02;;;16.30;99.90;;;;;;5027369;28;20040;-83
2023/06/27 02:49:53;;;;;;;4.03;1.35;;;16.30;99.90;;;;;;5026553;28;20040;-83
2023/06/27 02:52:20;;;;;;;2.97;1.30;;;16.30;99.90;;;;;;5028502;28;20053;-83
2023/06/27 02:54:48;;;;;;;2.55;1.40;;;16.20;99.90;;;;;;5001547;28;20042;-83
2023/06/27 02:57:15;;;;;;;2.90;1.15;;;16.20;99.90;;;;;;5041359;28;20112;-83
2023/06/27 02:59:42;;;;;;;4.50;1.33;;;16.20;99.90;;;;;;5011260;28;20385;-83
2023/06/27 03:02:11;;;;;;;4.13;1.27;;;16.20;99.90;;;;;;5043852;28;20046;-83
2023/06/27 03:04:37;;;;;;;3.00;1.13;;;16.10;99.90;;;;;;5045738;28;20388;-83
2023/06/27 03:07:04;;;;;;;2.17;0.80;;;16.00;99.90;;;;;;5037823;28;20384;-83
2023/06/27 03:09:31;;;;;;;2.90;1.52;;;16.00;99.90;;;;;;5005981;28;20042;-84
2023/06/27 03:11:58;;;;;;;3.17;1.10;;;15.90;99.90;;;;;;5024010;28;20030;-84
2023/06/27 03:14:27;;;;;;;2.92;1.02;;;15.90;99.90;;;;;;5009171;28;20053;-84
2023/06/27 03:16:55;;;;;;;3.85;1.48;;;15.90;99.90;;;;;;5009212;28;20058;-83
2023/06/27 03:19:21;;;;;;;2.88;1.17;;;15.80;99.90;;;;;;5012009;28;20392;-83
2023/06/27 03:21:48;;;;;;;5.15;1.42;;;15.90;99.90;;;;;;5009786;28;20048;-83
2023/06/27 03:24:15;;;;;;;4.45;1.23;;;15.90;99.90;;;;;;5025763;28;20049;-84
2023/06/27 03:26:45;;;;;;;;;;;15.90;99.90;;;;;;5041895;28;20046;-84
2023/06/27 03:29:12;;;;;;;3.10;1.35;;;15.90;99.90;;;;;;5029495;28;20398;-82
2023/06/27 03:31:38;;;;;;;3.25;1.10;;;16.00;99.90;;;;;;5029027;28;20026;-84
2023/06/27 03:34:05;;;;;;;3.17;1.10;;;16.00;99.90;;;;;;5037761;28;20060;-83
2023/06/27 03:36:33;;;;;;;4.35;1.88;;;16.00;99.90;;;;;;5040967;28;20048;-85
2023/06/27 03:39:00;;;;;;;3.75;1.33;;;16.00;99.90;;;;;;5023589;28;20072;-84
2023/06/27 03:41:26;;;;;;;4.07;1.40;;;16.00;99.90;;;;;;5030852;28;20417;-84
2023/06/27 03:43:53;;;;;;;5.10;1.38;;;15.80;99.90;;;;;;5035684;28;20056;-83
2023/06/27 03:46:19;;;;;;;3.17;1.20;;;15.70;99.90;;;;;;5028349;28;20037;-83
2023/06/27 03:48:45;;;;;;;2.70;1.20;;;15.60;1.00;;;;;;5025181;28;20033;-85
2023/06/27 03:51:11;;;;;;;6.18;1.98;;;15.50;1.00;;;;;;5010343;28;20038;-84
2023/06/27 03:53:37;;;;;;;4.35;1.95;;;15.50;1.00;;;;;;5030506;28;20044;-84
2023/06/27 03:56:04;;;;;;;6.97;1.10;;;15.40;1.00;;;;;;5013441;28;20052;-84
2023/06/27 03:58:32;;;;;;;3.97;1.52;;;15.40;1.00;;;;;;5014498;28;20049;-84
2023/06/27 04:00:59;;;;;;;5.20;1.20;;;15.40;1.00;;;;;;5018397;28;20045;-84
2023/06/27 04:03:25;;;;;;;2.05;1.20;;;15.40;1.00;;;;;;5016824;28;20053;-83
2023/06/27 04:05:51;;;;;;;2.83;0.95;;;15.40;1.00;;;;;;5044143;28;20045;-84
2023/06/27 04:08:20;;;;;;;2.53;1.38;;;15.30;1.00;;;;;;5030173;28;20040;-83
2023/06/27 04:10:46;;;;;;;5.50;1.30;;;15.30;1.00;;;;;;5030673;28;20037;-84
2023/06/27 04:13:13;;;;;;;6.05;1.50;;;15.30;1.00;;;;;;5028206;28;20033;-83
2023/06/27 04:15:39;;;;;;;2.60;1.50;;;15.30;1.00;;;;;;5040776;28;20261;-84
2023/06/27 04:18:08;;;;;;;6.32;1.67;;;15.30;1.00;;;;;;5006822;28;20042;-84
2023/06/27 04:20:35;;;;;;;2.33;1.23;;;15.30;1.00;;;;;;5010731;28;20049;-84
2023/06/27 04:23:02;;;;;;;3.70;1.60;;;15.30;1.00;;;;;;5023204;28;20467;-84
2023/06/27 04:25:35;;;;;;;3.97;1.23;;;15.40;1.00;;;;;;5025284;28;20507;-85
2023/06/27 04:28:04;;;;;;;2.35;1.30;;;15.50;1.00;;;;;;5015285;28;20074;-85
2023/06/27 04:30:30;;;;;;;5.43;1.70;;;15.70;1.00;;;;;;5017090;28;20046;-85
2023/06/27 04:32:56;;;;;;;4.10;1.30;;;15.80;1.00;;;;;;5023075;28;20052;-85
2023/06/27 04:35:23;;;;;;;3.00;1.27;;;15.80;1.00;;;;;;5026746;28;20042;-85
2023/06/27 04:37:51;;;;;;;3.97;1.63;;;15.90;1.00;;;;;;5042369;28;20040;-80
2023/06/27 04:40:17;;;;;;;7.18;1.55;;;15.90;1.00;;;;;;5030083;28;20037;-85
2023/06/27 04:42:45;;;;;;;6.10;1.73;;;15.90;1.00;;;;;;5011035;28;20511;-87
2023/06/27 04:45:11;;;;;;;4.60;1.35;;;15.80;1.00;;;;;;5025232;28;20030;-85
2023/06/27 04:47:37;;;;;;;5.40;1.77;;;15.80;1.00;;;;;;5026167;28;20048;-87
2023/06/27 04:50:05;;;;;;;3.75;1.40;;;15.80;1.00;;;;;;5027799;28;20057;-87
2023/06/27 04:52:31;;;;;;;3.83;1.27;;;15.80;1.00;;;;;;5029888;28;20029;-88
2023/06/27 04:54:57;;;;;;;6.38;1.35;;;15.90;1.00;;;;;;5027912;28;20046;-84
2023/06/27 04:57:23;;;;;;;6.00;1.40;;;15.90;1.00;;;;;;5029851;28;20037;-87
2023/06/27 04:59:49;;;;;;;4.43;1.40;;;16.00;1.00;;;;;;5026433;28;20045;-87
2023/06/27 05:02:15;;;;;;;4.85;1.20;;;16.10;1.00;;;;;;5027135;28;20037;-87
2023/06/27 05:04:42;;;;;;;6.78;2.20;;;16.10;99.90;;;;;;5052013;28;20048;-85
2023/06/27 05:07:08;;;;;;;1.75;0.88;;;16.20;99.90;;;;;;5053499;28;20031;-83
2023/06/27 05:09:34;;;;;;;8.25;1.90;;;16.20;99.90;;;;;;5061168;28;20043;-83
2023/06/27 05:12:00;;;;;;;4.47;1.25;;;16.50;99.90;;;;;;5049351;28;20045;-84
2023/06/27 05:14:26;;;;;;;5.47;1.20;;;16.60;99.90;;;;;;5045844;28;20420;-84
2023/06/27 05:16:52;;;;;;;7.30;1.40;;;16.60;99.90;;;;;;5046076;28;20411;-83
2023/06/27 05:19:18;;;;;;;2.22;1.02;;;16.60;99.90;;;;;;5048855;28;20029;-84
2023/06/27 05:21:44;;;;;;;7.22;1.27;;;16.60;99.90;;;;;;5048778;28;20625;-84
2023/06/27 05:24:11;;;;;;;3.28;1.13;;;16.80;99.90;;;;;;5044467;28;20037;-84
2023/06/27 05:26:37;;;;;;;3.10;1.52;;;16.80;99.90;;;;;;5026062;28;20033;-83
2023/06/27 05:29:03;;;;;;;5.38;1.38;;;16.80;99.90;;;;;;5043721;28;20025;-83
2023/06/27 05:31:29;;;;;;;4.35;1.13;;;16.80;99.90;;;;;;5047503;28;20033;-83
2023/06/27 05:33:55;;;;;;;6.60;1.33;;;16.80;99.90;;;;;;5044829;28;20043;-82
2023/06/27 05:36:21;;;;;;;3.58;0.90;;;16.80;99.90;;;;;;5047633;28;20391;-84
2023/06/27 05:38:49;;;;;;;6.63;1.60;;;16.80;99.90;;;;;;5061955;28;20048;-82
2023/06/27 05:41:18;;;;;;;5.25;1.45;;;16.80;99.90;;;;;;5046324;28;20033;-84
2023/06/27 05:43:47;;;;;;;10.10;1.55;;;16.90;99.90;;;;;;5042576;28;20385;-85
2023/06/27 05:46:13;;;;;;;5.63;1.10;;;16.90;99.90;;;;;;5043199;28;20025;-86
2023/06/27 05:48:39;;;;;;;5.53;1.35;;;16.90;99.90;;;;;;5045819;28;20025;-86
2023/06/27 05:51:06;;;;;;;4.15;1.20;;;16.90;99.90;;;;;;5027052;28;20060;-85
2023/06/27 05:53:33;;;;;;;5.93;1.73;;;17.00;99.90;;;;;;5040075;28;20048;-82
2023/06/27 05:55:59;;;;;;;3.28;1.23;;;17.10;99.90;;;;;;5034968;28;20057;-85
2023/06/27 05:58:25;;;;;;;5.38;2.22;;;17.20;99.90;;;;;;5047130;28;20344;-85
2023/06/27 06:00:51;;;;;;;3.85;1.20;;;17.30;99.90;;;;;;5047240;28;20029;-82
2023/06/27 06:03:18;;;;;;;3.55;1.20;;;17.30;99.90;;;;;;5046380;28;20459;-84
2023/06/27 06:05:45;;;;;;;3.05;1.25;;;17.70;99.90;;;;;;5059793;28;20044;-84
2023/06/27 06:08:11;;;;;;;8.13;1.48;;;18.10;99.90;;;;;;5061414;28;20052;-85
2023/06/27 06:10:37;;;;;;;5.20;1.40;;;18.30;99.90;;;;;;5043787;28;20044;-85
2023/06/27 06:13:03;;;;;;;7.53;1.52;;;18.60;99.90;;;;;;5046575;28;20037;-83
2023/06/27 06:15:29;;;;;;;5.50;1.70;;;19.20;99.90;;;;;;5044311;28;20080;-81
2023/06/27 06:17:55;;;;;;;5.57;1.98;;;19.40;99.90;;;;;;5045088;28;20029;-84
2023/06/27 06:20:21;;;;;;;4.00;1.52;;;19.50;99.90;;;;;;5048163;28;20047;-86
2023/06/27 06:22:48;;;;;;;6.38;1.70;;;19.80;99.90;;;;;;5064577;28;20044;-81
2023/06/27 06:25:14;;;;;;;3.92;1.10;;;19.80;99.90;;;;;;5045111;28;20044;-85
2023/06/27 06:27:40;;;;;;;3.67;1.20;;;19.60;99.90;;;;;;5046531;28;20037;-86
2023/06/27 06:30:08;;;;;;;3.55;1.13;;;19.60;99.90;;;;;;5048945;28;20490;-87
2023/06/27 06:32:34;;;;;;;5.88;1.23;;;19.70;99.90;;;;;;5033278;28;20373;-84
2023/06/27 06:35:00;;;;;;;6.03;1.88;;;19.40;99.90;;;;;;5056435;28;20395;-85
2023/06/27 06:37:26;;;;;;;4.07;1.45;;;19.50;99.90;;;;;;5027213;28;20045;-88
2023/06/27 06:39:52;;;;;;;5.15;1.40;;;19.60;99.90;;;;;;5034604;28;20043;-85
2023/06/27 06:42:18;;;;;;;8.07;1.25;;;19.40;99.90;;;;;;5049257;28;20056;-85
2023/06/27 06:44:47;;;;;;;3.08;1.45;;;19.20;99.90;;;;;;5052586;28;20049;-85
2023/06/27 06:47:14;;;;;;;2.88;1.13;;;19.30;99.90;;;;;;5043807;28;20033;-85
2023/06/27 06:49:40;;;;;;;5.55;1.23;;;19.90;99.90;;;;;;5029241;28;20045;-85
2023/06/27 06:52:06;;;;;;;7.20;1.38;;;20.40;99.90;;;;;;5045455;28;20052;-83
2023/06/27 06:54:33;;;;;;;5.78;1.98;;;20.60;99.90;;;;;;5027528;28;20045;-84
2023/06/27 06:56:59;;;;;;;4.68;1.17;;;20.30;99.90;;;;;;5043606;28;20037;-86
2023/06/27 06:59:25;;;;;;;4.15;1.45;;;20.10;99.90;;;;;;5048091;28;20460;-87
2023/06/27 07:01:51;;;;;;;6.35;1.05;;;19.60;99.90;;;;;;5057439;28;20038;-84
2023/06/27 07:04:17;;;;;;;4.32;1.13;;;19.70;99.90;;;;;;5048731;28;20037;-88
2023/06/27 07:06:43;;;;;;;4.53;1.00;;;19.80;99.90;;;;;;5044292;28;20026;-85
2023/06/27 07:09:09;;;;;;;2.88;1.27;;;20.20;99.90;;;;;;5044617;28;20362;-86
2023/06/27 07:11:36;;;;;;;4.15;1.20;;;20.40;99.90;;;;;;5047003;28;20041;-87
2023/06/27 07:14:02;;;;;;;4.35;0.90;;;20.30;99.90;;;;;;5047892;28;20040;-86
2023/06/27 07:16:28;;;;;;;5.40;1.38;;;20.30;99.90;;;;;;5073686;28;20040;-85
2023/06/27 07:18:54;;;;;;;5.38;0.90;;;20.10;99.90;;;;;;5051599;28;20037;-86
2023/06/27 07:21:20;;;;;;;3.92;1.00;;;20.20;99.90;;;;;;5047552;28;20041;-86
2023/06/27 07:23:46;;;;;;;2.55;1.00;;;21.00;99.90;;;;;;5045662;28;20052;-84
2023/06/27 07:26:13;;;;;;;3.42;1.13;;;21.30;99.90;;;;;;5047335;28;20028;-88
2023/06/27 07:28:39;;;;;;;3.67;1.13;;;21.10;99.90;;;;;;5049608;28;20032;-88
2023/06/27 07:31:05;;;;;;;3.53;1.25;;;21.10;99.90;;;;;;5048366;28;20028;-85
2023/06/27 07:33:31;;;;;;;1.70;0.80;;;21.10;99.90;;;;;;5061493;28;20025;-85
2023/06/27 07:35:57;;;;;;;3.65;1.80;;;21.10;99.90;;;;;;5043752;28;20025;-83
2023/06/27 07:38:24;;;;;;;2.30;1.02;;;21.60;99.90;;;;;;5042521;28;20032;-81
2023/06/27 07:40:50;;;;;;;1.92;0.80;;;22.60;99.90;;;;;;5042933;28;20029;-82
2023/06/27 07:43:16;;;;;;;2.72;0.90;;;23.60;99.90;;;;;;5044007;28;20045;-85
2023/06/27 07:45:42;;;;;;;2.15;0.85;;;24.00;89.40;;;;;;5024316;28;20343;-85
2023/06/27 07:48:08;;;;;;;5.57;0.95;;;24.20;94.60;;;;;;5044332;28;20033;-86
2023/06/27 07:50:35;;;;;;;3.05;1.20;;;24.10;88.50;;;;;;5048571;28;20029;-87
2023/06/27 07:53:02;;;;;;;2.50;1.05;;;24.40;83.60;;;;;;5045451;28;20037;-85
2023/06/27 07:55:29;;;;;;;3.70;1.05;;;24.60;77.60;;;;;;5043444;28;20053;-82
2023/06/27 07:57:55;;;;;;;1.65;0.70;;;24.90;75.30;;;;;;5014840;28;20399;-84
2023/06/27 08:00:22;;;;;;;1.88;0.90;;;25.20;34.40;;;;;;4978786;28;20040;-84
2023/06/27 08:02:49;;;;;;;2.47;0.70;;;24.30;50.50;;;;;;4954369;28;20027;-84
2023/06/27 08:05:15;;;;;;;3.55;1.05;;;24.00;68.50;;;;;;5023938;28;20051;-85
2023/06/27 08:07:41;;;;;;;1.38;0.85;;;22.80;76.30;;;;;;4945621;28;20066;-85
2023/06/27 08:10:07;;;;;;;4.93;1.10;;;23.30;92.40;;;;;;4948276;29;20035;-84
2023/06/27 08:12:33;;;;;;;5.13;1.90;;;23.60;63.30;;;;;;4948534;28;20039;-85
2023/06/27 08:15:00;;;;;;;2.88;0.90;;;24.20;90.00;;;;;;5007957;28;20043;-85
2023/06/27 08:17:26;;;;;;;3.58;1.00;;;24.70;63.30;;;;;;4947431;29;20054;-84
2023/06/27 08:19:52;;;;;;;1.95;0.93;;;24.80;48.30;;;;;;5009965;28;20141;-83
2023/06/27 08:22:19;;;;;;;1.83;1.08;;;24.40;45.70;;;;;;4944097;28;20050;-85
2023/06/27 08:24:45;;;;;;;3.13;1.63;;;23.90;45.00;;;;;;4947839;28;20027;-83
2023/06/27 08:27:11;;;;;;;4.03;1.10;;;23.70;59.70;;;;;;4943932;28;20031;-82
2023/06/27 08:29:37;;;;;;;3.08;1.00;;;24.00;46.80;;;;;;4947857;28;20426;-84
2023/06/27 08:32:04;;;;;;;3.13;0.98;;;22.80;57.70;;;;;;5011831;28;20044;-81
2023/06/27 08:34:31;;;;;;;2.47;0.95;;;22.40;78.00;;;;;;4949108;28;20063;-83
2023/06/27 08:36:58;;;;;;;4.00;1.33;;;22.20;87.50;;;;;;4946995;29;20031;-83
2023/06/27 08:39:25;;;;;;;3.75;0.90;;;22.40;81.70;;;;;;5002913;28;20076;-82
2023/06/27 08:41:51;;;;;;;2.30;0.85;;;21.90;81.40;;;;;;4948652;29;20068;-82
2023/06/27 08:44:17;;;;;;;2.90;0.95;;;22.10;91.50;;;;;;4947879;28;20035;-82
2023/06/27 08:46:47;;;;;;;3.00;0.82;;;22.20;75.00;;;;;;4944278;28;20023;-83
2023/06/27 08:49:24;;;;;;;1.77;0.80;;;21.80;86.90;;;;;;4945174;28;20036;-83
2023/06/27 08:51:56;;;;;;;2.22;0.80;;;22.00;89.60;;;;;;4995881;28;20044;-82
2023/06/27 08:54:43;;;;;;;1.55;0.95;;;23.40;87.50;;;;;;4949842;28;20039;-85
2023/06/27 08:57:09;;;;;;;4.35;2.00;;;24.40;36.70;;;;;;4946390;28;20038;-80
2023/06/27 08:59:35;;;;;;;5.13;1.15;;;24.80;35.20;;;;;;5043427;28;20049;-84
2023/06/27 09:02:03;;;;;;;2.20;0.95;;;26.10;11.80;;;;;;5031415;28;20048;-86
2023/06/27 09:04:33;;;;;;;4.80;1.48;;;26.40;1.00;;;;;;5041403;28;20033;-82
2023/06/27 09:07:00;;;;;;;2.30;0.93;;;25.40;11.10;;;;;;5037571;28;20048;-85
2023/06/27 09:09:29;;;;;;;4.53;1.55;;;24.40;22.80;;;;;;5042371;28;20468;-86
2023/06/27 09:11:58;;;;;;;4.70;1.35;;;23.50;38.20;;;;;;5044499;28;20044;-86
2023/06/27 09:14:25;;;;;;;4.80;1.15;;;24.20;31.10;;;;;;5046013;28;20679;-84
2023/06/27 09:16:51;;;;;;;3.08;1.08;;;23.30;33.70;;;;;;5063240;28;20037;-86
2023/06/27 09:19:18;;;;;;;4.97;1.08;;;22.80;54.40;;;;;;5020822;28;20029;-85
2023/06/27 09:21:47;;;;;;;4.88;1.35;;;22.50;57.00;;;;;;5039824;28;20041;-82
2023/06/27 09:24:14;;;;;;;3.40;1.08;;;22.60;60.90;;;;;;5044493;28;20369;-86
2023/06/27 09:26:40;;;;;;;3.58;1.15;;;22.70;63.50;;;;;;5049787;28;20428;-86
2023/06/27 09:29:07;;;;;;;6.45;1.48;;;22.20;63.50;;;;;;5051967;28;20036;-85
2023/06/27 09:31:33;;;;;;;4.85;1.38;;;22.30;72.40;;;;;;5042755;28;20037;-84
2023/06/27 09:34:06;;;;;;;4.97;1.17;;;23.00;66.80;;;;;;5047070;28;20037;-87
2023/06/27 09:36:37;;;;;;;5.10;1.42;;;23.90;50.80;;;;;;5045297;28;20400;-84
2023/06/27 09:39:10;;;;;;;7.22;1.42;;;24.00;33.90;;;;;;5048418;28;20033;-81
2023/06/27 09:41:46;;;;;;;2.78;1.35;;;23.40;43.40;;;;;;5048457;28;20036;-82
2023/06/27 09:44:18;;;;;;;3.58;1.30;;;23.40;45.20;;;;;;5046935;28;20038;-81
2023/06/27 09:46:49;;;;;;;4.03;1.90;;;23.80;46.40;;;;;;5047713;28;20471;-82
2023/06/27 09:49:16;;;;;;;3.65;1.08;;;24.90;30.50;;;;;;5053173;28;20033;-80
2023/06/27 09:51:49;;;;;;;5.60;2.00;;;25.00;30.50;;;;;;5056190;28;20466;-81
2023/06/27 09:54:21;;;;;;;3.40;1.17;;;25.50;17.00;;;;;;5064910;28;20041;-82
2023/06/27 09:56:52;;;;;;;4.38;1.48;;;25.20;14.80;;;;;;5047837;28;20033;-84
2023/06/27 09:59:21;;;;;;;3.28;1.25;;;24.40;23.10;;;;;;5049235;28;20274;-85
2023/06/27 10:01:49;;;;;;;4.13;1.40;;;23.90;21.70;;;;;;5049658;28;20045;-89
2023/06/27 10:04:15;;;;;;;4.80;1.95;;;23.70;32.70;;;;;;5048183;28;20036;-84
2023/06/27 10:06:41;;;;;;;3.08;1.20;;;23.90;34.00;;;;;;5046502;28;20056;-87
2023/06/27 10:09:08;;;;;;;4.93;1.23;;;24.50;36.00;;;;;;5047406;28;20029;-82
2023/06/27 10:11:37;;;;;;;4.38;1.17;;;24.60;30.70;;;;;;5046504;28;20044;-86
2023/06/27 10:14:04;;;;;;;2.03;1.20;;;24.60;18.10;;;;;;5048214;28;20407;-84
2023/06/27 10:16:30;;;;;;;2.95;1.08;;;24.20;39.90;;;;;;5061651;28;20287;-84
2023/06/27 10:18:57;;;;;;;5.28;1.15;;;24.10;28.70;;;;;;5048255;28;20040;-87
2023/06/27 10:21:26;;;;;;;5.00;1.55;;;23.80;31.10;;;;;;5049180;28;20048;-85
2023/06/27 10:23:55;;;;;;;4.75;1.52;;;23.30;42.00;;;;;;5048458;28;20033;-85
2023/06/27 10:26:25;;;;;;;6.82;1.33;;;23.10;44.90;;;;;;5045873;28;20044;-82
2023/06/27 10:28:53;;;;;;;3.58;1.00;;;23.20;46.90;;;;;;5049629;28;20028;-87
2023/06/27 10:31:44;;;;;;;5.07;1.85;;;23.20;42.10;;;;;;5048026;28;20243;-86
2023/06/27 10:34:21;;;;;;;5.15;0.93;;;23.80;49.60;;;;;;5047247;28;20612;-86
2023/06/27 10:36:54;;;;;;;3.95;1.20;;;24.20;28.40;;;;;;5023090;28;20040;-83
2023/06/27 10:39:27;;;;;;;4.13;1.20;;;24.10;38.40;;;;;;5041741;28;20025;-83
2023/06/27 10:42:01;;;;;;;3.65;1.45;;;23.90;50.10;;;;;;5044476;28;20040;-83
2023/06/27 10:44:28;;;;;;;3.90;1.73;;;23.90;38.50;;;;;;5036842;28;20056;-83
2023/06/27 10:47:16;;;;;;;3.03;1.00;;;23.80;41.30;;;;;;5029686;28;20392;-82
2023/06/27 10:49:48;;;;;;;4.60;1.65;;;23.90;35.20;;;;;;5050139;28;20033;-84
2023/06/27 10:52:22;;;;;;;4.43;1.70;;;23.40;48.50;;;;;;5047034;28;20048;-81
2023/06/27 10:55:14;;;;;;;5.78;1.10;;;23.30;57.70;;;;;;5047407;28;20045;-84
2023/06/27 10:57:43;;;;;;;3.85;1.42;;;23.20;53.10;;;;;;5041953;28;20026;-82
2023/06/27 11:00:15;;;;;;;3.55;0.93;;;23.00;53.60;;;;;;5046021;28;20041;-85
2023/06/27 11:02:47;;;;;;;7.15;1.45;;;22.90;57.90;;;;;;5049846;28;20036;-85
2023/06/27 11:05:17;;;;;;;4.63;1.60;;;22.90;55.70;;;;;;5045516;28;20446;-83
2023/06/27 11:07:54;;;;;;;3.17;0.95;;;23.30;65.30;;;;;;5026675;28;20504;-85
2023/06/27 11:10:25;;;;;;;6.00;1.10;;;23.20;53.30;;;;;;5046222;28;20052;-85
2023/06/27 11:13:21;;;;;;;6.15;1.10;;;22.90;60.40;;;;;;5050473;28;20657;-89
2023/06/27 11:15:50;;;;;;;10.40;1.92;;;23.20;55.70;;;;;;5045936;28;20049;-89
2023/06/27 11:18:17;;;;;;;5.07;1.30;;;23.30;47.40;;;;;;5047159;28;20483;-80
2023/06/27 11:20:44;;;;;;;6.25;1.50;;;23.00;52.20;;;;;;5048331;28;20036;-84
2023/06/27 11:23:12;;;;;;;5.68;1.58;;;23.20;57.00;;;;;;5048450;28;20056;-83
2023/06/27 11:25:42;;;;;;;4.82;2.28;;;23.50;65.40;;;;;;5049291;28;20037;-83
2023/06/27 11:28:10;;;;;;;;;;;23.80;49.00;;;;;;5056737;28;20032;-84
2023/06/27 11:30:37;;;;;;;3.95;1.40;;;23.80;32.80;;;;;;5057845;28;20267;-83
2023/06/27 11:33:03;;;;;;;5.80;1.15;;;23.60;44.30;;;;;;5045763;28;20388;-83
2023/06/27 11:35:33;;;;;;;3.30;1.08;;;23.80;42.20;;;;;;5050091;28;20045;-83
2023/06/27 11:37:59;;;;;;;7.83;1.27;;;24.00;25.80;;;;;;5050414;28;20041;-84
2023/06/27 11:40:27;;;;;;;5.72;1.50;;;24.30;35.20;;;;;;5077551;28;20267;-84
2023/06/27 11:43:03;;;;;;;3.30;1.00;;;24.20;21.80;;;;;;5058596;28;20039;-80
2023/06/27 11:45:31;;;;;;;5.32;1.58;;;24.20;16.60;;;;;;5053633;28;20041;-84
2023/06/27 11:48:01;;;;;;;1.40;0.90;;;24.10;15.30;;;;;;5054467;28;20032;-83
2023/06/27 11:50:28;;;;;;;4.38;1.70;;;24.20;29.20;;;;;;5047090;28;20052;-81
2023/06/27 11:52:57;;;;;;;6.40;1.35;;;24.70;15.60;;;;;;5036819;28;20413;-82
2023/06/27 11:55:24;;;;;;;5.35;1.23;;;24.80;14.90;;;;;;5052380;28;20371;-87
2023/06/27 11:57:55;;;;;;;2.50;0.98;;;24.50;8.40;;;;;;5053856;28;20383;-82
2023/06/27 12:00:24;;;;;;;4.53;1.23;;;24.60;18.20;;;;;;5051874;28;20057;-82
2023/06/27 12:02:52;;;;;;;2.92;1.15;;;24.60;2.70;;;;;;5053853;28;20038;-82
2023/06/27 12:05:20;;;;;;;3.78;1.00;;;25.00;5.30;;;;;;5056524;28;20031;-83
2023/06/27 12:08:04;;;;;;;3.40;1.45;;;25.00;3.90;;;;;;5035588;28;20029;-86
2023/06/27 12:10:32;;;;;;;2.97;0.90;;;24.90;10.20;;;;;;5053146;28;20040;-83
2023/06/27 12:13:02;;;;;;;3.25;1.33;;;25.50;1.00;;;;;;5053516;28;20056;-81
2023/06/27 12:15:29;;;;;;;2.35;1.30;;;25.30;1.00;;;;;;5035495;28;20037;-81
2023/06/27 12:18:00;;;;;;;2.92;0.93;;;24.90;1.00;;;;;;5047812;28;20037;-82
2023/06/27 12:20:40;;;;;;;8.43;1.50;;;24.90;9.70;;;;;;5051079;28;20037;-81
2023/06/27 12:23:07;;;;;;;3.60;1.45;;;25.40;1.00;;;;;;5050846;28;20487;-87
2023/06/27 12:25:33;;;;;;;4.80;1.40;;;25.80;1.00;;;;;;5051746;28;20033;-88
2023/06/27 12:28:02;;;;;;;3.05;0.95;;;25.20;1.00;;;;;;5048879;28;20099;-90
2023/06/27 12:30:28;;;;;;;2.30;1.00;;;24.60;1.00;;;;;;5063778;28;20021;-84
2023/06/27 12:32:54;;;;;;;3.05;1.10;;;24.20;1.00;;;;;;5058333;28;20036;-86
2023/06/27 12:35:20;;;;;;;1.95;0.80;;;24.20;1.00;;;;;;5038955;28;20057;-86
2023/06/27 12:37:47;;;;;;;5.20;0.80;;;24.10;1.00;;;;;;5051289;28;20357;-86
2023/06/27 12:40:17;;;;;;;2.95;0.88;;;24.20;1.00;;;;;;5049179;28;20379;-82
2023/06/27 12:42:44;;;;;;;2.30;0.82;;;24.30;1.00;;;;;;5049940;28;20364;-84
2023/06/27 12:45:11;;;;;;;4.18;0.95;;;24.60;2.70;;;;;;5049950;28;20041;-81
2023/06/27 12:47:41;;;;;;;7.93;1.10;;;24.90;1.00;;;;;;5048953;28;20040;-87
2023/06/27 12:50:13;;;;;;;3.55;1.30;;;24.70;1.00;;;;;;5034271;28;20037;-83
2023/06/27 12:52:39;;;;;;;3.40;0.80;;;24.70;1.00;;;;;;5065004;28;20034;-82